sensor_id;sensor_type;location;lat;lon;timestamp;temperature;humidity
28010;DHT22;15334;49.494;8.410;2023-03-12T00:01:16;0.20;99.90
28010;DHT22;15334;49.494;8.410;2023-03-12T00:03:45;0.20;99.90
28010;DHT22;15334;49.494;8.410;2023-03-12T00:06:14;0.20;99.90
28010;DHT22;15334;49.494;8.410;2023-03-12T00:08:42;0.20;99.90
28010;DHT22;15334;49.494;8.410;2023-03-12T00:11:12;0.20;99.90
28010;DHT22;15334;49.494;8.410;2023-03-12T00:13:42;0.20;99.90
28010;DHT22;15334;49.494;8.410;2023-03-12T00:16:12;0.20;99.90
28010;DHT22;15334;49.494;8.410;2023-03-12T00:18:42;0.10;99.90
28010;DHT22;15334;49.494;8.410;2023-03-12T00:21:10;0.10;99.90
28010;DHT22;15334;49.494;8.410;2023-03-12T00:23:39;0.10;99.90
28010;DHT22;15334;49.494;8.410;2023-03-12T00:26:09;0.10;99.90
28010;DHT22;15334;49.494;8.410;2023-03-12T00:28:38;0.10;99.90
28010;DHT22;15334;49.494;8.410;2023-03-12T00:31:13;0.10;99.90
28010;DHT22;15334;49.494;8.410;2023-03-12T00:33:42;0.00;99.90
28010;DHT22;15334;49.494;8.410;2023-03-12T00:36:10;0.10;99.90
28010;DHT22;15334;49.494;8.410;2023-03-12T00:38:40;0.10;99.90
28010;DHT22;15334;49.494;8.410;2023-03-12T00:41:08;0.10;99.90
28010;DHT22;15334;49.494;8.410;2023-03-12T00:43:36;0.10;99.90
28010;DHT22;15334;49.494;8.410;2023-03-12T00:46:44;0.10;99.90
28010;DHT22;15334;49.494;8.410;2023-03-12T01:34:26;0.70;99.90
28010;DHT22;15334;49.494;8.410;2023-03-12T01:38:23;0.70;99.90
28010;DHT22;15334;49.494;8.410;2023-03-12T01:48:33;0.90;99.90
28010;DHT22;15334;49.494;8.410;2023-03-12T01:51:05;0.90;99.90
28010;DHT22;15334;49.494;8.410;2023-03-12T01:53:35;0.90;99.90
28010;DHT22;15334;49.494;8.410;2023-03-12T01:56:05;0.90;99.90
28010;DHT22;15334;49.494;8.410;2023-03-12T01:58:35;0.90;99.90
28010;DHT22;15334;49.494;8.410;2023-03-12T02:01:04;0.80;99.90
28010;DHT22;15334;49.494;8.410;2023-03-12T02:03:33;0.80;99.90
28010;DHT22;15334;49.494;8.410;2023-03-12T02:06:07;0.90;99.90
28010;DHT22;15334;49.494;8.410;2023-03-12T02:08:39;0.90;99.90
28010;DHT22;15334;49.494;8.410;2023-03-12T02:11:08;0.90;99.90
28010;DHT22;15334;49.494;8.410;2023-03-12T02:13:36;0.90;99.90
28010;DHT22;15334;49.494;8.410;2023-03-12T02:16:04;1.00;99.90
28010;DHT22;15334;49.494;8.410;2023-03-12T02:18:34;1.00;99.90
28010;DHT22;15334;49.494;8.410;2023-03-12T02:21:12;1.00;99.90
28010;DHT22;15334;49.494;8.410;2023-03-12T02:23:46;1.10;99.90
28010;DHT22;15334;49.494;8.410;2023-03-12T02:26:20;1.10;99.90
28010;DHT22;15334;49.494;8.410;2023-03-12T02:28:49;1.20;99.90
28010;DHT22;15334;49.494;8.410;2023-03-12T02:31:20;1.20;99.90
28010;DHT22;15334;49.494;8.410;2023-03-12T02:33:49;1.20;99.90
28010;DHT22;15334;49.494;8.410;2023-03-12T02:36:18;1.30;99.90
28010;DHT22;15334;49.494;8.410;2023-03-12T02:38:48;1.30;99.90
28010;DHT22;15334;49.494;8.410;2023-03-12T02:41:20;1.30;99.90
28010;DHT22;15334;49.494;8.410;2023-03-12T02:43:51;1.30;99.90
28010;DHT22;15334;49.494;8.410;2023-03-12T02:46:21;1.40;99.90
28010;DHT22;15334;49.494;8.410;2023-03-12T02:48:50;1.40;99.90
28010;DHT22;15334;49.494;8.410;2023-03-12T02:51:19;1.50;99.90
28010;DHT22;15334;49.494;8.410;2023-03-12T02:53:47;1.50;99.90
28010;DHT22;15334;49.494;8.410;2023-03-12T02:56:23;1.50;99.90
28010;DHT22;15334;49.494;8.410;2023-03-12T02:58:51;1.60;99.90
28010;DHT22;15334;49.494;8.410;2023-03-12T03:01:20;1.60;99.90
28010;DHT22;15334;49.494;8.410;2023-03-12T03:03:48;1.60;99.90
28010;DHT22;15334;49.494;8.410;2023-03-12T03:06:16;1.70;99.90
28010;DHT22;15334;49.494;8.410;2023-03-12T03:08:44;1.70;99.90
28010;DHT22;15334;49.494;8.410;2023-03-12T03:11:12;1.70;99.90
28010;DHT22;15334;49.494;8.410;2023-03-12T03:13:42;1.70;99.90
28010;DHT22;15334;49.494;8.410;2023-03-12T03:16:10;1.70;99.90
28010;DHT22;15334;49.494;8.410;2023-03-12T03:18:39;1.70;99.90
28010;DHT22;15334;49.494;8.410;2023-03-12T03:21:08;1.80;99.90
28010;DHT22;15334;49.494;8.410;2023-03-12T03:23:42;1.80;99.90
28010;DHT22;15334;49.494;8.410;2023-03-12T03:26:10;1.80;99.90
28010;DHT22;15334;49.494;8.410;2023-03-12T03:28:39;1.80;99.90
28010;DHT22;15334;49.494;8.410;2023-03-12T03:31:08;1.80;99.90
28010;DHT22;15334;49.494;8.410;2023-03-12T03:33:37;1.90;99.90
28010;DHT22;15334;49.494;8.410;2023-03-12T03:36:07;2.00;99.90
28010;DHT22;15334;49.494;8.410;2023-03-12T03:38:35;2.00;99.90
28010;DHT22;15334;49.494;8.410;2023-03-12T03:41:03;2.00;99.90
28010;DHT22;15334;49.494;8.410;2023-03-12T03:43:31;2.10;99.90
28010;DHT22;15334;49.494;8.410;2023-03-12T03:46:01;2.10;99.90
28010;DHT22;15334;49.494;8.410;2023-03-12T03:48:31;2.20;99.90
28010;DHT22;15334;49.494;8.410;2023-03-12T03:51:00;2.20;99.90
28010;DHT22;15334;49.494;8.410;2023-03-12T03:53:28;2.30;99.90
28010;DHT22;15334;49.494;8.410;2023-03-12T03:55:56;2.30;99.90
28010;DHT22;15334;49.494;8.410;2023-03-12T03:58:24;2.30;99.90
28010;DHT22;15334;49.494;8.410;2023-03-12T04:00:53;2.20;99.90
28010;DHT22;15334;49.494;8.410;2023-03-12T04:03:21;2.20;99.90
28010;DHT22;15334;49.494;8.410;2023-03-12T04:05:54;2.20;99.90
28010;DHT22;15334;49.494;8.410;2023-03-12T04:08:22;2.20;99.90
28010;DHT22;15334;49.494;8.410;2023-03-12T04:10:51;2.30;99.90
28010;DHT22;15334;49.494;8.410;2023-03-12T04:13:19;2.30;99.90
28010;DHT22;15334;49.494;8.410;2023-03-12T04:15:48;2.20;99.90
28010;DHT22;15334;49.494;8.410;2023-03-12T04:18:17;2.20;99.90
28010;DHT22;15334;49.494;8.410;2023-03-12T04:20:45;2.30;99.90
28010;DHT22;15334;49.494;8.410;2023-03-12T04:23:14;2.30;99.90
28010;DHT22;15334;49.494;8.410;2023-03-12T04:25:42;2.40;99.90
28010;DHT22;15334;49.494;8.410;2023-03-12T04:28:10;2.40;99.90
28010;DHT22;15334;49.494;8.410;2023-03-12T04:30:38;2.30;99.90
28010;DHT22;15334;49.494;8.410;2023-03-12T04:33:06;2.20;99.90
28010;DHT22;15334;49.494;8.410;2023-03-12T04:35:34;2.20;99.90
28010;DHT22;15334;49.494;8.410;2023-03-12T04:38:02;2.10;99.90
28010;DHT22;15334;49.494;8.410;2023-03-12T04:40:32;2.10;99.90
28010;DHT22;15334;49.494;8.410;2023-03-12T04:43:00;2.10;99.90
28010;DHT22;15334;49.494;8.410;2023-03-12T04:45:28;2.20;99.90
28010;DHT22;15334;49.494;8.410;2023-03-12T04:47:55;2.20;99.90
28010;DHT22;15334;49.494;8.410;2023-03-12T04:50:23;2.30;99.90
28010;DHT22;15334;49.494;8.410;2023-03-12T04:52:51;2.10;99.90
28010;DHT22;15334;49.494;8.410;2023-03-12T04:55:19;2.10;99.90
28010;DHT22;15334;49.494;8.410;2023-03-12T04:57:48;2.00;99.90
28010;DHT22;15334;49.494;8.410;2023-03-12T05:00:17;2.00;99.90
28010;DHT22;15334;49.494;8.410;2023-03-12T05:02:45;2.00;99.90
28010;DHT22;15334;49.494;8.410;2023-03-12T05:05:14;1.90;99.90
28010;DHT22;15334;49.494;8.410;2023-03-12T05:07:44;1.90;99.90
28010;DHT22;15334;49.494;8.410;2023-03-12T05:10:12;1.80;99.90
28010;DHT22;15334;49.494;8.410;2023-03-12T05:12:40;1.60;99.90
28010;DHT22;15334;49.494;8.410;2023-03-12T05:15:10;1.50;99.90
28010;DHT22;15334;49.494;8.410;2023-03-12T05:17:38;1.30;99.90
28010;DHT22;15334;49.494;8.410;2023-03-12T05:20:06;1.30;99.90
28010;DHT22;15334;49.494;8.410;2023-03-12T05:22:34;1.20;99.90
28010;DHT22;15334;49.494;8.410;2023-03-12T05:25:03;1.20;99.90
28010;DHT22;15334;49.494;8.410;2023-03-12T05:27:31;1.30;99.90
28010;DHT22;15334;49.494;8.410;2023-03-12T05:29:59;1.30;99.90
28010;DHT22;15334;49.494;8.410;2023-03-12T05:32:32;1.30;99.90
28010;DHT22;15334;49.494;8.410;2023-03-12T05:35:00;1.20;99.90
28010;DHT22;15334;49.494;8.410;2023-03-12T05:37:28;1.30;99.90
28010;DHT22;15334;49.494;8.410;2023-03-12T05:39:56;1.30;99.90
28010;DHT22;15334;49.494;8.410;2023-03-12T05:42:24;1.30;99.90
28010;DHT22;15334;49.494;8.410;2023-03-12T05:44:52;1.30;99.90
28010;DHT22;15334;49.494;8.410;2023-03-12T05:47:20;1.30;99.90
28010;DHT22;15334;49.494;8.410;2023-03-12T05:49:50;1.40;99.90
28010;DHT22;15334;49.494;8.410;2023-03-12T05:52:18;1.50;99.90
28010;DHT22;15334;49.494;8.410;2023-03-12T05:59:14;1.40;99.90
28010;DHT22;15334;49.494;8.410;2023-03-12T06:09:15;1.40;99.90
28010;DHT22;15334;49.494;8.410;2023-03-12T06:11:43;1.40;99.90
28010;DHT22;15334;49.494;8.410;2023-03-12T06:14:13;1.40;99.90
28010;DHT22;15334;49.494;8.410;2023-03-12T06:16:41;1.40;99.90
28010;DHT22;15334;49.494;8.410;2023-03-12T06:19:10;1.40;99.90
28010;DHT22;15334;49.494;8.410;2023-03-12T06:21:41;1.40;99.90
28010;DHT22;15334;49.494;8.410;2023-03-12T06:24:09;1.50;99.90
28010;DHT22;15334;49.494;8.410;2023-03-12T06:26:39;1.60;99.90
28010;DHT22;15334;49.494;8.410;2023-03-12T06:29:07;1.70;99.90
28010;DHT22;15334;49.494;8.410;2023-03-12T06:31:35;1.80;99.90
28010;DHT22;15334;49.494;8.410;2023-03-12T06:34:05;1.80;99.90
28010;DHT22;15334;49.494;8.410;2023-03-12T06:36:33;1.90;99.90
28010;DHT22;15334;49.494;8.410;2023-03-12T06:39:01;1.90;99.90
28010;DHT22;15334;49.494;8.410;2023-03-12T06:41:32;2.00;99.90
28010;DHT22;15334;49.494;8.410;2023-03-12T06:44:02;2.00;99.90
28010;DHT22;15334;49.494;8.410;2023-03-12T06:46:32;2.00;99.90
28010;DHT22;15334;49.494;8.410;2023-03-12T06:49:00;2.00;99.90
28010;DHT22;15334;49.494;8.410;2023-03-12T06:51:28;2.00;99.90
28010;DHT22;15334;49.494;8.410;2023-03-12T06:53:56;2.00;99.90
28010;DHT22;15334;49.494;8.410;2023-03-12T06:56:26;2.00;99.90
28010;DHT22;15334;49.494;8.410;2023-03-12T06:58:55;1.90;99.90
28010;DHT22;15334;49.494;8.410;2023-03-12T07:01:24;1.90;99.90
28010;DHT22;15334;49.494;8.410;2023-03-12T07:03:52;1.90;99.90
28010;DHT22;15334;49.494;8.410;2023-03-12T07:06:22;1.90;99.90
28010;DHT22;15334;49.494;8.410;2023-03-12T07:08:50;1.90;99.90
28010;DHT22;15334;49.494;8.410;2023-03-12T07:11:19;2.00;99.90
28010;DHT22;15334;49.494;8.410;2023-03-12T07:13:47;2.00;99.90
28010;DHT22;15334;49.494;8.410;2023-03-12T07:16:15;1.90;99.90
28010;DHT22;15334;49.494;8.410;2023-03-12T07:18:44;1.90;99.90
28010;DHT22;15334;49.494;8.410;2023-03-12T07:21:12;1.90;99.90
28010;DHT22;15334;49.494;8.410;2023-03-12T07:23:42;1.90;99.90
28010;DHT22;15334;49.494;8.410;2023-03-12T07:26:10;1.90;99.90
28010;DHT22;15334;49.494;8.410;2023-03-12T07:28:38;1.90;99.90
28010;DHT22;15334;49.494;8.410;2023-03-12T07:31:06;2.00;99.90
28010;DHT22;15334;49.494;8.410;2023-03-12T07:33:34;2.00;99.90
28010;DHT22;15334;49.494;8.410;2023-03-12T07:36:05;2.00;99.90
28010;DHT22;15334;49.494;8.410;2023-03-12T07:38:34;2.00;99.90
28010;DHT22;15334;49.494;8.410;2023-03-12T07:41:02;2.00;99.90
28010;DHT22;15334;49.494;8.410;2023-03-12T07:43:30;2.00;99.90
28010;DHT22;15334;49.494;8.410;2023-03-12T07:45:59;2.00;99.90
28010;DHT22;15334;49.494;8.410;2023-03-12T07:48:27;1.90;99.90
28010;DHT22;15334;49.494;8.410;2023-03-12T07:50:55;2.00;99.90
28010;DHT22;15334;49.494;8.410;2023-03-12T07:53:24;2.00;99.90
28010;DHT22;15334;49.494;8.410;2023-03-12T07:55:53;2.10;99.90
28010;DHT22;15334;49.494;8.410;2023-03-12T07:58:22;2.10;99.90
28010;DHT22;15334;49.494;8.410;2023-03-12T08:00:53;2.10;99.90
28010;DHT22;15334;49.494;8.410;2023-03-12T08:03:21;2.20;99.90
28010;DHT22;15334;49.494;8.410;2023-03-12T08:05:57;2.20;99.90
28010;DHT22;15334;49.494;8.410;2023-03-12T08:08:27;2.20;99.90
28010;DHT22;15334;49.494;8.410;2023-03-12T08:10:55;2.20;99.90
28010;DHT22;15334;49.494;8.410;2023-03-12T08:13:23;2.30;99.90
28010;DHT22;15334;49.494;8.410;2023-03-12T08:15:52;2.30;99.90
28010;DHT22;15334;49.494;8.410;2023-03-12T08:18:22;2.30;99.90
28010;DHT22;15334;49.494;8.410;2023-03-12T08:20:53;2.40;99.90
28010;DHT22;15334;49.494;8.410;2023-03-12T08:23:22;2.40;99.90
28010;DHT22;15334;49.494;8.410;2023-03-12T08:25:52;2.40;99.90
28010;DHT22;15334;49.494;8.410;2023-03-12T08:28:22;2.40;99.90
28010;DHT22;15334;49.494;8.410;2023-03-12T08:30:54;2.40;99.90
28010;DHT22;15334;49.494;8.410;2023-03-12T08:33:22;2.40;99.90
28010;DHT22;15334;49.494;8.410;2023-03-12T08:35:53;2.40;99.90
28010;DHT22;15334;49.494;8.410;2023-03-12T08:38:22;2.50;99.90
28010;DHT22;15334;49.494;8.410;2023-03-12T08:41:00;2.60;99.90
28010;DHT22;15334;49.494;8.410;2023-03-12T08:43:29;2.70;99.90
28010;DHT22;15334;49.494;8.410;2023-03-12T08:45:58;2.70;99.90
28010;DHT22;15334;49.494;8.410;2023-03-12T08:48:28;2.70;99.90
28010;DHT22;15334;49.494;8.410;2023-03-12T08:50:59;2.80;99.90
28010;DHT22;15334;49.494;8.410;2023-03-12T08:53:30;2.90;99.90
28010;DHT22;15334;49.494;8.410;2023-03-12T08:56:01;2.90;99.90
28010;DHT22;15334;49.494;8.410;2023-03-12T08:58:36;3.00;99.90
28010;DHT22;15334;49.494;8.410;2023-03-12T09:01:08;3.00;99.90
28010;DHT22;15334;49.494;8.410;2023-03-12T09:03:39;3.10;99.90
28010;DHT22;15334;49.494;8.410;2023-03-12T09:06:10;3.10;99.90
28010;DHT22;15334;49.494;8.410;2023-03-12T09:08:43;3.10;99.90
28010;DHT22;15334;49.494;8.410;2023-03-12T09:11:15;3.20;99.90
28010;DHT22;15334;49.494;8.410;2023-03-12T09:13:43;3.20;99.90
28010;DHT22;15334;49.494;8.410;2023-03-12T09:16:32;3.30;99.90
28010;DHT22;15334;49.494;8.410;2023-03-12T09:19:03;3.40;99.90
28010;DHT22;15334;49.494;8.410;2023-03-12T09:21:31;3.50;99.90
28010;DHT22;15334;49.494;8.410;2023-03-12T09:24:00;3.70;99.90
28010;DHT22;15334;49.494;8.410;2023-03-12T09:26:30;3.80;99.90
28010;DHT22;15334;49.494;8.410;2023-03-12T09:28:58;3.90;99.90
28010;DHT22;15334;49.494;8.410;2023-03-12T09:31:27;4.00;99.90
28010;DHT22;15334;49.494;8.410;2023-03-12T09:33:55;4.00;99.90
28010;DHT22;15334;49.494;8.410;2023-03-12T09:36:23;4.00;99.90
28010;DHT22;15334;49.494;8.410;2023-03-12T09:38:51;4.10;99.90
28010;DHT22;15334;49.494;8.410;2023-03-12T09:41:24;4.10;99.90
28010;DHT22;15334;49.494;8.410;2023-03-12T09:44:12;4.20;99.90
28010;DHT22;15334;49.494;8.410;2023-03-12T09:46:47;4.20;99.90
28010;DHT22;15334;49.494;8.410;2023-03-12T09:49:22;4.40;99.90
28010;DHT22;15334;49.494;8.410;2023-03-12T09:51:56;4.50;99.90
28010;DHT22;15334;49.494;8.410;2023-03-12T09:54:29;4.60;99.90
28010;DHT22;15334;49.494;8.410;2023-03-12T09:57:02;4.60;99.90
28010;DHT22;15334;49.494;8.410;2023-03-12T09:59:34;4.80;99.90
28010;DHT22;15334;49.494;8.410;2023-03-12T10:02:11;4.80;99.90
28010;DHT22;15334;49.494;8.410;2023-03-12T10:04:45;4.70;99.90
28010;DHT22;15334;49.494;8.410;2023-03-12T10:07:32;4.90;99.90
28010;DHT22;15334;49.494;8.410;2023-03-12T10:10:15;5.00;99.90
28010;DHT22;15334;49.494;8.410;2023-03-12T10:13:04;5.10;99.90
28010;DHT22;15334;49.494;8.410;2023-03-12T10:15:43;5.20;99.90
28010;DHT22;15334;49.494;8.410;2023-03-12T10:18:22;5.30;99.90
28010;DHT22;15334;49.494;8.410;2023-03-12T10:21:04;5.40;99.90
28010;DHT22;15334;49.494;8.410;2023-03-12T10:23:43;5.40;99.90
28010;DHT22;15334;49.494;8.410;2023-03-12T10:26:21;5.60;99.90
28010;DHT22;15334;49.494;8.410;2023-03-12T10:28:55;5.70;99.90
28010;DHT22;15334;49.494;8.410;2023-03-12T10:31:29;6.00;99.90
28010;DHT22;15334;49.494;8.410;2023-03-12T10:34:00;6.40;99.90
28010;DHT22;15334;49.494;8.410;2023-03-12T10:36:35;6.50;99.90
28010;DHT22;15334;49.494;8.410;2023-03-12T10:39:12;6.60;99.90
28010;DHT22;15334;49.494;8.410;2023-03-12T10:41:41;6.80;99.90
28010;DHT22;15334;49.494;8.410;2023-03-12T10:44:16;6.90;99.90
28010;DHT22;15334;49.494;8.410;2023-03-12T10:46:58;6.80;99.90
28010;DHT22;15334;49.494;8.410;2023-03-12T10:49:31;6.70;99.90
28010;DHT22;15334;49.494;8.410;2023-03-12T10:52:03;6.60;99.90
28010;DHT22;15334;49.494;8.410;2023-03-12T10:54:34;6.60;99.90
28010;DHT22;15334;49.494;8.410;2023-03-12T10:57:03;6.70;99.90
28010;DHT22;15334;49.494;8.410;2023-03-12T10:59:33;6.70;99.90
28010;DHT22;15334;49.494;8.410;2023-03-12T11:02:28;6.70;99.90
28010;DHT22;15334;49.494;8.410;2023-03-12T11:04:57;6.80;99.90
28010;DHT22;15334;49.494;8.410;2023-03-12T11:07:30;6.70;99.90
28010;DHT22;15334;49.494;8.410;2023-03-12T11:10:24;6.90;99.90
28010;DHT22;15334;49.494;8.410;2023-03-12T11:13:01;7.00;99.90
28010;DHT22;15334;49.494;8.410;2023-03-12T11:15:38;7.00;99.90
28010;DHT22;15334;49.494;8.410;2023-03-12T11:18:21;7.20;99.90
28010;DHT22;15334;49.494;8.410;2023-03-12T11:20:52;7.30;99.90
28010;DHT22;15334;49.494;8.410;2023-03-12T11:23:25;7.40;99.90
28010;DHT22;15334;49.494;8.410;2023-03-12T11:25:59;7.50;99.90
28010;DHT22;15334;49.494;8.410;2023-03-12T11:28:35;7.60;99.90
28010;DHT22;15334;49.494;8.410;2023-03-12T11:31:09;7.90;99.90
28010;DHT22;15334;49.494;8.410;2023-03-12T11:33:39;8.20;99.90
28010;DHT22;15334;49.494;8.410;2023-03-12T11:36:17;9.10;99.90
28010;DHT22;15334;49.494;8.410;2023-03-12T11:38:52;9.40;99.90
28010;DHT22;15334;49.494;8.410;2023-03-12T11:41:40;9.70;99.90
28010;DHT22;15334;49.494;8.410;2023-03-12T11:44:25;10.60;99.90
28010;DHT22;15334;49.494;8.410;2023-03-12T11:47:09;11.20;99.90
28010;DHT22;15334;49.494;8.410;2023-03-12T11:49:57;11.50;99.90
28010;DHT22;15334;49.494;8.410;2023-03-12T11:52:41;11.60;99.90
28010;DHT22;15334;49.494;8.410;2023-03-12T11:55:18;11.80;99.90
28010;DHT22;15334;49.494;8.410;2023-03-12T11:58:01;12.00;99.90
28010;DHT22;15334;49.494;8.410;2023-03-12T12:00:34;12.40;99.90
28010;DHT22;15334;49.494;8.410;2023-03-12T12:03:32;12.60;99.90
28010;DHT22;15334;49.494;8.410;2023-03-12T12:06:06;12.40;99.90
28010;DHT22;15334;49.494;8.410;2023-03-12T12:08:52;12.20;99.90
28010;DHT22;15334;49.494;8.410;2023-03-12T12:11:33;12.00;99.90
28010;DHT22;15334;49.494;8.410;2023-03-12T12:14:12;12.20;99.90
28010;DHT22;15334;49.494;8.410;2023-03-12T12:19:50;13.40;99.90
28010;DHT22;15334;49.494;8.410;2023-03-12T12:22:33;14.90;99.90
28010;DHT22;15334;49.494;8.410;2023-03-12T12:25:22;16.20;99.90
28010;DHT22;15334;49.494;8.410;2023-03-12T12:28:13;17.40;99.90
28010;DHT22;15334;49.494;8.410;2023-03-12T12:30:57;18.10;99.90
28010;DHT22;15334;49.494;8.410;2023-03-12T12:33:40;18.80;99.90
28010;DHT22;15334;49.494;8.410;2023-03-12T12:36:09;19.30;99.90
28010;DHT22;15334;49.494;8.410;2023-03-12T12:38:42;20.60;99.90
28010;DHT22;15334;49.494;8.410;2023-03-12T12:41:14;21.50;99.90
28010;DHT22;15334;49.494;8.410;2023-03-12T12:43:48;20.90;99.60
28010;DHT22;15334;49.494;8.410;2023-03-12T12:46:18;19.90;99.90
28010;DHT22;15334;49.494;8.410;2023-03-12T12:48:50;18.90;99.90
28010;DHT22;15334;49.494;8.410;2023-03-12T12:51:22;18.00;99.90
28010;DHT22;15334;49.494;8.410;2023-03-12T12:53:58;17.20;99.90
28010;DHT22;15334;49.494;8.410;2023-03-12T12:56:32;16.30;99.90
28010;DHT22;15334;49.494;8.410;2023-03-12T13:02:10;14.40;99.90
28010;DHT22;15334;49.494;8.410;2023-03-12T13:04:40;14.30;99.90
28010;DHT22;15334;49.494;8.410;2023-03-12T13:07:31;14.80;99.90
28010;DHT22;15334;49.494;8.410;2023-03-12T13:10:06;15.30;99.90
28010;DHT22;15334;49.494;8.410;2023-03-12T13:12:55;15.20;99.90
28010;DHT22;15334;49.494;8.410;2023-03-12T13:15:35;15.20;99.90
28010;DHT22;15334;49.494;8.410;2023-03-12T13:18:20;15.20;99.90
28010;DHT22;15334;49.494;8.410;2023-03-12T13:21:08;15.10;99.90
28010;DHT22;15334;49.494;8.410;2023-03-12T13:23:46;14.80;99.90
28010;DHT22;15334;49.494;8.410;2023-03-12T13:26:21;14.50;99.90
28010;DHT22;15334;49.494;8.410;2023-03-12T13:29:10;14.40;99.90
28010;DHT22;15334;49.494;8.410;2023-03-12T13:31:41;14.20;99.90
28010;DHT22;15334;49.494;8.410;2023-03-12T13:34:31;14.30;99.90
28010;DHT22;15334;49.494;8.410;2023-03-12T13:37:01;14.30;99.90
28010;DHT22;15334;49.494;8.410;2023-03-12T13:39:32;14.40;99.90
28010;DHT22;15334;49.494;8.410;2023-03-12T13:42:32;14.50;99.90
28010;DHT22;15334;49.494;8.410;2023-03-12T13:45:27;14.60;99.90
28010;DHT22;15334;49.494;8.410;2023-03-12T13:47:59;14.50;99.90
28010;DHT22;15334;49.494;8.410;2023-03-12T13:50:32;14.60;99.90
28010;DHT22;15334;49.494;8.410;2023-03-12T13:53:21;14.70;99.90
28010;DHT22;15334;49.494;8.410;2023-03-12T13:56:03;14.80;99.90
28010;DHT22;15334;49.494;8.410;2023-03-12T13:58:40;14.90;99.90
28010;DHT22;15334;49.494;8.410;2023-03-12T14:01:22;14.90;99.90
28010;DHT22;15334;49.494;8.410;2023-03-12T14:04:00;14.90;99.90
28010;DHT22;15334;49.494;8.410;2023-03-12T14:06:34;14.90;99.90
28010;DHT22;15334;49.494;8.410;2023-03-12T14:09:13;14.90;99.90
28010;DHT22;15334;49.494;8.410;2023-03-12T14:11:58;14.80;99.90
28010;DHT22;15334;49.494;8.410;2023-03-12T14:17:30;14.70;99.90
28010;DHT22;15334;49.494;8.410;2023-03-12T14:20:01;14.70;99.90
28010;DHT22;15334;49.494;8.410;2023-03-12T14:22:33;14.60;99.90
28010;DHT22;15334;49.494;8.410;2023-03-12T14:25:05;14.50;99.90
28010;DHT22;15334;49.494;8.410;2023-03-12T14:27:44;14.40;99.90
28010;DHT22;15334;49.494;8.410;2023-03-12T14:30:20;14.30;99.90
28010;DHT22;15334;49.494;8.410;2023-03-12T14:32:52;14.10;99.90
28010;DHT22;15334;49.494;8.410;2023-03-12T14:35:28;13.90;99.90
28010;DHT22;15334;49.494;8.410;2023-03-12T14:38:03;13.80;99.90
28010;DHT22;15334;49.494;8.410;2023-03-12T14:40:38;13.60;99.90
28010;DHT22;15334;49.494;8.410;2023-03-12T14:43:24;13.50;99.90
28010;DHT22;15334;49.494;8.410;2023-03-12T14:46:05;13.40;99.90
28010;DHT22;15334;49.494;8.410;2023-03-12T14:48:35;13.30;99.90
28010;DHT22;15334;49.494;8.410;2023-03-12T14:51:05;13.30;99.90
28010;DHT22;15334;49.494;8.410;2023-03-12T14:53:34;13.20;99.90
28010;DHT22;15334;49.494;8.410;2023-03-12T14:56:05;13.20;99.90
28010;DHT22;15334;49.494;8.410;2023-03-12T14:58:40;13.20;99.90
28010;DHT22;15334;49.494;8.410;2023-03-12T15:01:13;13.20;99.90
28010;DHT22;15334;49.494;8.410;2023-03-12T15:03:45;13.20;99.90
28010;DHT22;15334;49.494;8.410;2023-03-12T15:06:18;13.20;99.90
28010;DHT22;15334;49.494;8.410;2023-03-12T15:08:46;13.30;99.90
28010;DHT22;15334;49.494;8.410;2023-03-12T15:11:20;13.20;99.90
28010;DHT22;15334;49.494;8.410;2023-03-12T15:13:50;13.30;99.90
28010;DHT22;15334;49.494;8.410;2023-03-12T15:16:21;13.30;99.90
28010;DHT22;15334;49.494;8.410;2023-03-12T15:18:49;13.30;99.90
28010;DHT22;15334;49.494;8.410;2023-03-12T15:21:19;13.30;99.90
28010;DHT22;15334;49.494;8.410;2023-03-12T15:23:48;13.40;99.90
28010;DHT22;15334;49.494;8.410;2023-03-12T15:26:27;13.40;99.90
28010;DHT22;15334;49.494;8.410;2023-03-12T15:29:02;13.40;99.90
28010;DHT22;15334;49.494;8.410;2023-03-12T15:31:42;13.40;99.90
28010;DHT22;15334;49.494;8.410;2023-03-12T15:34:30;13.30;99.90
28010;DHT22;15334;49.494;8.410;2023-03-12T15:37:22;13.20;99.90
28010;DHT22;15334;49.494;8.410;2023-03-12T15:40:18;13.10;99.90
28010;DHT22;15334;49.494;8.410;2023-03-12T15:42:56;13.10;99.90
28010;DHT22;15334;49.494;8.410;2023-03-12T15:45:36;13.00;99.90
28010;DHT22;15334;49.494;8.410;2023-03-12T15:48:17;12.90;99.90
28010;DHT22;15334;49.494;8.410;2023-03-12T15:50:48;13.00;99.90
28010;DHT22;15334;49.494;8.410;2023-03-12T15:53:28;12.90;99.90
28010;DHT22;15334;49.494;8.410;2023-03-12T15:56:02;12.90;99.90
28010;DHT22;15334;49.494;8.410;2023-03-12T15:58:33;12.90;99.90
28010;DHT22;15334;49.494;8.410;2023-03-12T16:01:09;12.90;99.90
28010;DHT22;15334;49.494;8.410;2023-03-12T16:03:40;13.00;99.90
28010;DHT22;15334;49.494;8.410;2023-03-12T16:06:11;13.00;99.90
28010;DHT22;15334;49.494;8.410;2023-03-12T16:08:44;13.00;99.90
28010;DHT22;15334;49.494;8.410;2023-03-12T16:11:17;13.00;99.90
28010;DHT22;15334;49.494;8.410;2023-03-12T16:13:47;13.00;99.90
28010;DHT22;15334;49.494;8.410;2023-03-12T16:16:16;13.10;99.90
28010;DHT22;15334;49.494;8.410;2023-03-12T16:18:45;13.00;99.90
28010;DHT22;15334;49.494;8.410;2023-03-12T16:21:22;13.00;99.90
28010;DHT22;15334;49.494;8.410;2023-03-12T16:23:50;13.00;99.90
28010;DHT22;15334;49.494;8.410;2023-03-12T16:26:21;13.00;99.90
28010;DHT22;15334;49.494;8.410;2023-03-12T16:28:50;12.90;99.90
28010;DHT22;15334;49.494;8.410;2023-03-12T16:31:18;12.90;99.90
28010;DHT22;15334;49.494;8.410;2023-03-12T16:33:47;12.90;99.90
28010;DHT22;15334;49.494;8.410;2023-03-12T16:36:17;12.90;99.90
28010;DHT22;15334;49.494;8.410;2023-03-12T16:38:46;12.90;99.90
28010;DHT22;15334;49.494;8.410;2023-03-12T16:41:16;12.90;99.90
28010;DHT22;15334;49.494;8.410;2023-03-12T16:43:47;12.80;99.90
28010;DHT22;15334;49.494;8.410;2023-03-12T16:46:18;12.80;99.90
28010;DHT22;15334;49.494;8.410;2023-03-12T16:48:50;12.80;99.90
28010;DHT22;15334;49.494;8.410;2023-03-12T16:51:19;12.80;99.90
28010;DHT22;15334;49.494;8.410;2023-03-12T16:53:48;12.80;99.90
28010;DHT22;15334;49.494;8.410;2023-03-12T16:56:34;12.80;99.90
28010;DHT22;15334;49.494;8.410;2023-03-12T16:59:05;12.80;99.90
28010;DHT22;15334;49.494;8.410;2023-03-12T17:01:35;12.80;99.90
28010;DHT22;15334;49.494;8.410;2023-03-12T17:04:04;12.70;99.90
28010;DHT22;15334;49.494;8.410;2023-03-12T17:06:33;12.60;99.90
28010;DHT22;15334;49.494;8.410;2023-03-12T17:09:02;12.60;99.90
28010;DHT22;15334;49.494;8.410;2023-03-12T17:11:35;12.60;99.90
28010;DHT22;15334;49.494;8.410;2023-03-12T17:14:14;12.50;99.90
28010;DHT22;15334;49.494;8.410;2023-03-12T17:16:56;12.40;99.90
28010;DHT22;15334;49.494;8.410;2023-03-12T17:19:26;12.40;99.90
28010;DHT22;15334;49.494;8.410;2023-03-12T17:21:54;12.40;99.90
28010;DHT22;15334;49.494;8.410;2023-03-12T17:24:23;12.40;99.90
28010;DHT22;15334;49.494;8.410;2023-03-12T17:26:53;12.40;99.90
28010;DHT22;15334;49.494;8.410;2023-03-12T17:29:22;12.30;99.90